| time (UTC) | temp F | wind direction | speed knots | gust knots | rain 1hr in | rain 24hr in | rain mn in | humidity % | barometer mb |
| 20260508023200 | 49 | 247 | 0.0 | 0.0 | 0.00 | 0.00 | 0.00 | 63 | 1013.7 |
| 20260508022655 | 49 | 297 | 1.7 | 2.6 | 0.00 | 0.00 | 0.00 | 63 | 1013.9 |
| 20260508022152 | 50 | 272 | 0.9 | 0.9 | 0.00 | 0.00 | 0.00 | 65 | 1013.9 |
| 20260508021648 | 50 | 259 | 0.9 | 1.7 | 0.00 | 0.00 | 0.00 | 61 | 1013.8 |
| 20260508021144 | 50 | 250 | 0.0 | 0.9 | 0.00 | 0.00 | 0.00 | 60 | 1013.8 |
| 20260508020642 | 50 | 259 | 0.0 | 0.0 | 0.00 | 0.00 | 0.00 | 60 | 1013.8 |
| 20260508020139 | 50 | 249 | 0.0 | 0.9 | 0.00 | 0.00 | 0.00 | 58 | 1013.6 |
| 20260508015636 | 50 | 262 | 0.0 | 0.9 | 0.00 | 0.00 | 0.00 | 60 | 1013.6 |
| 20260508015133 | 50 | 260 | 0.0 | 0.0 | 0.00 | 0.00 | 0.00 | 60 | 1013.5 |
| 20260508014630 | 51 | 266 | 0.0 | 0.0 | 0.00 | 0.00 | 0.00 | 62 | 1013.8 |
| 20260508014126 | 51 | 244 | 0.0 | 0.0 | 0.00 | 0.00 | 0.00 | 60 | 1013.5 |
| 20260508013622 | 51 | 247 | 0.9 | 0.9 | 0.00 | 0.00 | 0.00 | 58 | 1013.4 |
| 20260508013119 | 51 | 261 | 0.0 | 0.0 | 0.00 | 0.00 | 0.00 | 58 | 1013.4 |
| 20260508012617 | 51 | 254 | 0.0 | 0.0 | 0.00 | 0.00 | 0.00 | 56 | 1013.2 |
| 20260508012114 | 52 | 291 | 0.0 | 0.9 | 0.00 | 0.00 | 0.00 | 56 | 1013.2 |
| 20260508011612 | 53 | 271 | 0.0 | 0.0 | 0.00 | 0.00 | 0.00 | 54 | 1012.9 |
| 20260508011109 | 54 | 273 | 0.0 | 0.9 | 0.00 | 0.00 | 0.00 | 54 | 1013.0 |
| 20260508010606 | 54 | 253 | 0.0 | 0.9 | 0.00 | 0.00 | 0.00 | 52 | 1012.8 |
| 20260508010104 | 55 | 277 | 0.9 | 0.9 | 0.00 | 0.00 | 0.00 | 50 | 1012.8 |
| 20260508005600 | 55 | 245 | 0.0 | 0.0 | 0.00 | 0.00 | 0.00 | 50 | 1012.7 |
| 20260508005056 | 55 | 268 | 0.0 | 0.9 | 0.00 | 0.00 | 0.00 | 51 | 1012.6 |
| 20260508004552 | 55 | 232 | 0.9 | 0.9 | 0.00 | 0.00 | 0.00 | 51 | 1012.7 |
| 20260508004049 | 55 | 271 | 0.9 | 0.9 | 0.00 | 0.00 | 0.00 | 50 | 1012.5 |
| 20260508003546 | 54 | 265 | 0.0 | 0.0 | 0.00 | 0.00 | 0.00 | 55 | 1012.7 |
| 20260508003043 | 54 | 164 | 1.7 | 1.7 | 0.00 | 0.00 | 0.00 | 51 | 1012.4 |
| 20260508002539 | 55 | 268 | 0.0 | 0.0 | 0.00 | 0.00 | 0.00 | 56 | 1012.4 |
| 20260508002037 | 55 | 259 | 0.9 | 0.9 | 0.00 | 0.00 | 0.00 | 55 | 1012.4 |
| 20260508001532 | 55 | 301 | 0.0 | 0.9 | 0.00 | 0.00 | 0.00 | 55 | 1012.5 |
| 20260508001029 | 55 | 262 | 0.9 | 0.9 | 0.00 | 0.00 | 0.00 | 54 | 1012.3 |
| 20260508000525 | 55 | 228 | 0.9 | 0.9 | 0.00 | 0.00 | 0.00 | 53 | 1012.2 |
| 20260508000023 | 56 | 236 | 0.9 | 1.7 | 0.00 | 0.00 | 0.00 | 48 | 1012.2 |
| 20260507235519 | 56 | 288 | 0.0 | 0.9 | 0.00 | 0.00 | 0.00 | 51 | 1011.8 |
| 20260507235017 | 57 | 269 | 0.9 | 0.9 | 0.00 | 0.00 | 0.00 | 50 | 1012.1 |
| 20260507234513 | 57 | 268 | 0.0 | 0.0 | 0.00 | 0.00 | 0.00 | 49 | 1011.6 |
| 20260507234009 | 57 | 276 | 0.9 | 0.9 | 0.00 | 0.00 | 0.00 | 52 | 1011.7 |
| 20260507233506 | 58 | 268 | 0.0 | 0.0 | 0.00 | 0.00 | 0.00 | 50 | 1011.5 |
| 20260507233005 | 58 | 276 | 0.9 | 0.9 | 0.00 | 0.00 | 0.00 | 46 | 1011.7 |
| 20260507232501 | 58 | 266 | 0.0 | 0.0 | 0.00 | 0.00 | 0.00 | 48 | 1011.6 |
| 20260507231959 | 58 | 272 | 0.9 | 0.9 | 0.00 | 0.00 | 0.00 | 48 | 1011.5 |
| 20260507231454 | 58 | 272 | 1.7 | 2.6 | 0.00 | 0.00 | 0.00 | 48 | 1011.3 |
| 20260507230951 | 59 | 274 | 1.7 | 1.7 | 0.00 | 0.00 | 0.00 | 49 | 1011.3 |
| 20260507230449 | 60 | 337 | 3.5 | 4.3 | 0.00 | 0.00 | 0.00 | 45 | 1011.0 |
| 20260507225944 | 60 | 267 | 1.7 | 1.7 | 0.00 | 0.00 | 0.00 | 47 | 1011.2 |
| 20260507225440 | 61 | 276 | 0.0 | 0.9 | 0.00 | 0.00 | 0.00 | 43 | 1011.1 |
| 20260507224936 | 60 | 265 | 0.0 | 0.9 | 0.00 | 0.00 | 0.00 | 45 | 1011.2 |
| 20260507224432 | 60 | 277 | 2.6 | 2.6 | 0.00 | 0.00 | 0.00 | 44 | 1011.1 |
| 20260507223929 | 61 | 334 | 0.9 | 0.9 | 0.00 | 0.00 | 0.00 | 44 | 1011.0 |
| 20260507223425 | 62 | 283 | 1.7 | 1.7 | 0.00 | 0.00 | 0.00 | 42 | 1011.0 |
| 20260507222922 | 61 | 258 | 2.6 | 2.6 | 0.00 | 0.00 | 0.00 | 41 | 1010.8 |
| 20260507222419 | 61 | 291 | 1.7 | 1.7 | 0.00 | 0.00 | 0.00 | 43 | 1010.6 |
| 20260507221916 | 62 | 277 | 0.9 | 0.9 | 0.00 | 0.00 | 0.00 | 45 | 1010.8 |
| 20260507221412 | 63 | 288 | 2.6 | 2.6 | 0.00 | 0.00 | 0.00 | 42 | 1010.5 |
| 20260507220908 | 65 | 293 | 2.6 | 7.8 | 0.00 | 0.00 | 0.00 | 42 | 1010.7 |
| 20260507220406 | 64 | 273 | 0.9 | 1.7 | 0.00 | 0.00 | 0.00 | 41 | 1010.5 |
| 20260507215902 | 64 | 230 | 1.7 | 2.6 | 0.00 | 0.00 | 0.00 | 39 | 1010.4 |
| 20260507215359 | 65 | 237 | 1.7 | 2.6 | 0.00 | 0.00 | 0.00 | 39 | 1010.2 |
| 20260507214856 | 65 | 245 | 1.7 | 1.7 | 0.00 | 0.00 | 0.00 | 41 | 1010.3 |
| 20260507214354 | 66 | 165 | 2.6 | 4.3 | 0.00 | 0.00 | 0.00 | 40 | 1009.9 |
| 20260507213849 | 66 | 250 | 0.0 | 0.9 | 0.00 | 0.00 | 0.00 | 42 | 1010.3 |
| 20260507213346 | 66 | 266 | 0.0 | 0.9 | 0.00 | 0.00 | 0.00 | 42 | 1010.2 |
| 20260507212843 | 65 | 289 | 0.9 | 1.7 | 0.00 | 0.00 | 0.00 | 42 | 1010.1 |
| 20260507212339 | 64 | 208 | 1.7 | 2.6 | 0.00 | 0.00 | 0.00 | 42 | 1010.2 |
| 20260507211836 | 66 | 270 | 1.7 | 2.6 | 0.00 | 0.00 | 0.00 | 39 | 1010.0 |
| 20260507211332 | 66 | 303 | 1.7 | 1.7 | 0.00 | 0.00 | 0.00 | 42 | 1010.2 |
| 20260507210829 | 66 | 260 | 2.6 | 4.3 | 0.00 | 0.00 | 0.00 | 43 | 1009.7 |
| 20260507210326 | 67 | 284 | 1.7 | 1.7 | 0.00 | 0.00 | 0.00 | 44 | 1009.9 |
| 20260507205823 | 68 | 315 | 1.7 | 1.7 | 0.00 | 0.00 | 0.00 | 40 | 1010.2 |
| 20260507205320 | 67 | 259 | 0.9 | 0.9 | 0.00 | 0.00 | 0.00 | 40 | 1010.0 |
| 20260507204815 | 67 | 297 | 1.7 | 1.7 | 0.00 | 0.00 | 0.00 | 42 | 1010.1 |
| 20260507204313 | 68 | 282 | 0.9 | 1.7 | 0.00 | 0.00 | 0.00 | 42 | 1010.0 |
| 20260507203811 | 67 | 310 | 0.0 | 0.9 | 0.00 | 0.00 | 0.00 | 40 | 1010.0 |
| 20260507203309 | 67 | 224 | 2.6 | 4.3 | 0.00 | 0.00 | 0.00 | 39 | 1010.0 |
| 20260507202805 | 68 | 215 | 2.6 | 4.3 | 0.00 | 0.00 | 0.00 | 40 | 1009.9 |
| 20260507202301 | 68 | 357 | 1.7 | 1.7 | 0.00 | 0.00 | 0.00 | 40 | 1009.7 |
| 20260507201756 | 68 | 272 | 2.6 | 6.1 | 0.00 | 0.00 | 0.00 | 39 | 1009.9 |
| 20260507201252 | 68 | 205 | 2.6 | 2.6 | 0.00 | 0.00 | 0.00 | 38 | 1009.9 |
| 20260507200749 | 67 | 288 | 2.6 | 4.3 | 0.00 | 0.00 | 0.00 | 41 | 1010.1 |
| 20260507200245 | 67 | 298 | 1.7 | 1.7 | 0.00 | 0.00 | 0.00 | 44 | 1010.0 |
| 20260507195741 | 66 | 305 | 2.6 | 2.6 | 0.00 | 0.00 | 0.00 | 42 | 1009.9 |
| 20260507195239 | 69 | 290 | 1.7 | 1.7 | 0.00 | 0.00 | 0.00 | 41 | 1010.1 |
| 20260507194736 | 68 | 310 | 2.6 | 2.6 | 0.00 | 0.00 | 0.00 | 39 | 1010.2 |
| 20260507194232 | 67 | 201 | 2.6 | 2.6 | 0.00 | 0.00 | 0.00 | 41 | 1010.2 |
| 20260507193729 | 64 | 304 | 0.9 | 1.7 | 0.00 | 0.00 | 0.00 | 46 | 1010.2 |
| 20260507193225 | 64 | 56 | 1.7 | 2.6 | 0.00 | 0.00 | 0.00 | 46 | 1010.1 |
| 20260507192722 | 64 | 270 | 0.9 | 0.9 | 0.00 | 0.00 | 0.00 | 44 | 1010.4 |
| 20260507192219 | 67 | 246 | 3.5 | 4.3 | 0.00 | 0.00 | 0.00 | 42 | 1010.3 |
| 20260507191714 | 66 | 267 | 3.5 | 5.2 | 0.00 | 0.00 | 0.00 | 43 | 1010.5 |
| 20260507191212 | 64 | 299 | 2.6 | 2.6 | 0.00 | 0.00 | 0.00 | 50 | 1010.6 |
| 20260507190708 | 63 | 272 | 1.7 | 2.6 | 0.00 | 0.00 | 0.00 | 50 | 1010.6 |
| 20260507190207 | 66 | 230 | 3.5 | 4.3 | 0.00 | 0.00 | 0.00 | 43 | 1010.7 |
| 20260507185705 | 67 | 269 | 3.5 | 5.2 | 0.00 | 0.00 | 0.00 | 44 | 1010.5 |
| 20260507185202 | 66 | 119 | 1.7 | 2.6 | 0.00 | 0.00 | 0.00 | 49 | 1010.5 |
| 20260507184659 | 66 | 53 | 3.5 | 5.2 | 0.00 | 0.00 | 0.00 | 48 | 1010.6 |
| 20260507184157 | 65 | 192 | 0.0 | 0.9 | 0.00 | 0.00 | 0.00 | 51 | 1010.6 |
| 20260507183653 | 63 | 301 | 2.6 | 2.6 | 0.00 | 0.00 | 0.00 | 56 | 1010.6 |
| 20260507183150 | 65 | 267 | 1.7 | 2.6 | 0.00 | 0.00 | 0.00 | 49 | 1010.8 |
| 20260507182647 | 64 | 224 | 0.9 | 0.9 | 0.00 | 0.00 | 0.00 | 54 | 1010.6 |
| 20260507182143 | 63 | 278 | 0.0 | 0.9 | 0.00 | 0.00 | 0.00 | 55 | 1010.8 |
| 20260507181639 | 65 | 302 | 2.6 | 4.3 | 0.00 | 0.00 | 0.00 | 52 | 1010.6 |
| 20260507181136 | 67 | 286 | 0.9 | 0.9 | 0.00 | 0.00 | 0.00 | 49 | 1010.8 |
| 20260507180632 | 66 | 265 | 0.9 | 0.9 | 0.00 | 0.00 | 0.00 | 50 | 1010.8 |
| 20260507180130 | 64 | 265 | 0.0 | 0.9 | 0.00 | 0.00 | 0.00 | 52 | 1011.0 |
| 20260507175625 | 66 | 295 | 4.3 | 6.1 | 0.00 | 0.00 | 0.00 | 53 | 1010.9 |
| 20260507175123 | 67 | 256 | 0.9 | 0.9 | 0.00 | 0.00 | 0.00 | 50 | 1011.1 |
| 20260507174620 | 66 | 220 | 2.6 | 4.3 | 0.00 | 0.00 | 0.00 | 53 | 1011.3 |
| 20260507174118 | 65 | 308 | 1.7 | 1.7 | 0.00 | 0.00 | 0.00 | 54 | 1011.2 |
| 20260507173615 | 63 | 232 | 1.7 | 1.7 | 0.00 | 0.00 | 0.00 | 58 | 1011.2 |
| 20260507173112 | 61 | 298 | 3.5 | 5.2 | 0.00 | 0.00 | 0.00 | 59 | 1011.2 |
| 20260507172607 | 61 | 282 | 0.9 | 1.7 | 0.00 | 0.00 | 0.00 | 61 | 1011.6 |
| 20260507172105 | 61 | 243 | 0.9 | 1.7 | 0.00 | 0.00 | 0.00 | 59 | 1011.5 |
| 20260507171600 | 60 | 282 | 2.6 | 4.3 | 0.00 | 0.00 | 0.00 | 60 | 1011.7 |
| 20260507171057 | 60 | 98 | 0.9 | 0.9 | 0.00 | 0.00 | 0.00 | 60 | 1011.7 |
| 20260507170554 | 60 | 170 | 2.6 | 2.6 | 0.00 | 0.00 | 0.00 | 61 | 1011.8 |
| 20260507170051 | 59 | 34 | 3.5 | 4.3 | 0.00 | 0.00 | 0.00 | 63 | 1012.0 |
| 20260507165547 | 59 | 294 | 1.7 | 2.6 | 0.00 | 0.00 | 0.00 | 62 | 1011.8 |
| 20260507165043 | 60 | 340 | 1.7 | 1.7 | 0.00 | 0.00 | 0.00 | 62 | 1012.0 |
| 20260507164539 | 60 | 260 | 0.9 | 1.7 | 0.00 | 0.00 | 0.00 | 60 | 1012.2 |
| 20260507164037 | 60 | 272 | 0.9 | 0.9 | 0.00 | 0.00 | 0.00 | 63 | 1012.2 |
| 20260507163534 | 60 | 272 | 0.0 | 0.0 | 0.00 | 0.00 | 0.00 | 61 | 1012.3 |
| 20260507163032 | 59 | 235 | 1.7 | 1.7 | 0.00 | 0.00 | 0.00 | 65 | 1012.4 |
| 20260507162526 | 59 | 270 | 0.0 | 0.0 | 0.00 | 0.00 | 0.00 | 66 | 1012.4 |
| 20260507162023 | 58 | 42 | 0.0 | 0.9 | 0.00 | 0.00 | 0.00 | 65 | 1012.5 |
| 20260507161520 | 58 | 255 | 0.0 | 0.9 | 0.00 | 0.00 | 0.00 | 67 | 1012.8 |
| 20260507161017 | 57 | 349 | 0.9 | 0.9 | 0.00 | 0.00 | 0.00 | 65 | 1012.9 |
| 20260507160513 | 57 | 29 | 5.2 | 7.0 | 0.00 | 0.00 | 0.00 | 66 | 1012.8 |
| 20260507160009 | 58 | 259 | 0.9 | 1.7 | 0.00 | 0.00 | 0.00 | 66 | 1013.0 |
| 20260507155504 | 58 | 235 | 2.6 | 2.6 | 0.00 | 0.00 | 0.00 | 64 | 1012.9 |
| 20260507155002 | 56 | 270 | 0.0 | 0.9 | 0.00 | 0.00 | 0.00 | 67 | 1013.0 |
| 20260507154458 | 59 | 297 | 1.7 | 1.7 | 0.00 | 0.00 | 0.00 | 66 | 1013.1 |
| 20260507153955 | 59 | 251 | 0.9 | 0.9 | 0.00 | 0.00 | 0.00 | 66 | 1013.2 |
| 20260507153452 | 57 | 285 | 0.9 | 1.7 | 0.00 | 0.00 | 0.00 | 72 | 1013.1 |
| 20260507152949 | 56 | 213 | 0.9 | 0.9 | 0.00 | 0.00 | 0.00 | 71 | 1013.2 |
| 20260507152444 | 55 | 284 | 0.9 | 0.9 | 0.00 | 0.00 | 0.00 | 69 | 1013.4 |
| 20260507151941 | 55 | 10 | 1.7 | 2.6 | 0.00 | 0.00 | 0.00 | 72 | 1013.1 |
| 20260507151437 | 55 | 270 | 0.9 | 0.9 | 0.00 | 0.00 | 0.00 | 74 | 1013.3 |
| 20260507150934 | 55 | 213 | 0.9 | 0.9 | 0.00 | 0.00 | 0.00 | 71 | 1013.5 |
| 20260507150431 | 55 | 131 | 2.6 | 2.6 | 0.00 | 0.00 | 0.00 | 73 | 1013.5 |
| 20260507145928 | 54 | 254 | 0.0 | 0.0 | 0.00 | 0.00 | 0.00 | 73 | 1013.6 |
| 20260507145423 | 54 | 153 | 1.7 | 1.7 | 0.00 | 0.00 | 0.00 | 73 | 1013.6 |
| 20260507144921 | 53 | 231 | 0.0 | 0.9 | 0.00 | 0.00 | 0.00 | 76 | 1013.6 |
| 20260507144418 | 55 | 330 | 2.6 | 2.6 | 0.00 | 0.00 | 0.00 | 73 | 1013.7 |
| 20260507143914 | 57 | 170 | 2.6 | 4.3 | 0.00 | 0.00 | 0.00 | 72 | 1013.8 |
| 20260507143412 | 56 | 262 | 0.0 | 0.0 | 0.00 | 0.00 | 0.00 | 73 | 1013.8 |
| 20260507142908 | 53 | 217 | 0.0 | 0.9 | 0.00 | 0.00 | 0.00 | 75 | 1013.9 |
| 20260507142404 | 53 | 200 | 0.0 | 0.9 | 0.00 | 0.00 | 0.00 | 78 | 1014.2 |
| 20260507141901 | 51 | 0 | 0.9 | 1.7 | 0.00 | 0.00 | 0.00 | 78 | 1014.2 |
| 20260507141357 | 51 | 354 | 0.9 | 1.7 | 0.00 | 0.00 | 0.00 | 78 | 1014.2 |
| 20260507140854 | 51 | 14 | 0.9 | 0.9 | 0.00 | 0.00 | 0.00 | 79 | 1014.3 |
| 20260507140351 | 51 | 268 | 0.0 | 0.0 | 0.00 | 0.00 | 0.00 | 79 | 1014.4 |
| 20260507135849 | 50 | 285 | 1.7 | 1.7 | 0.00 | 0.00 | 0.00 | 81 | 1014.4 |
| 20260507135345 | 50 | 356 | 0.9 | 0.9 | 0.00 | 0.00 | 0.00 | 81 | 1014.6 |
| 20260507134843 | 50 | 283 | 0.0 | 0.9 | 0.00 | 0.00 | 0.00 | 82 | 1014.6 |
| 20260507134339 | 50 | 298 | 0.9 | 0.9 | 0.00 | 0.00 | 0.00 | 83 | 1014.7 |
| 20260507133835 | 50 | 258 | 0.0 | 0.9 | 0.00 | 0.00 | 0.00 | 83 | 1014.6 |
| 20260507133331 | 50 | 278 | 0.0 | 0.0 | 0.00 | 0.00 | 0.00 | 84 | 1014.7 |
| 20260507132830 | 50 | 288 | 1.7 | 1.7 | 0.00 | 0.00 | 0.00 | 85 | 1014.7 |
| 20260507132325 | 50 | 291 | 0.0 | 0.9 | 0.00 | 0.00 | 0.00 | 85 | 1015.0 |
| 20260507131823 | 50 | 309 | 1.7 | 1.7 | 0.00 | 0.00 | 0.00 | 86 | 1014.9 |
| 20260507131319 | 50 | 272 | 0.0 | 0.0 | 0.00 | 0.00 | 0.00 | 85 | 1014.9 |
| 20260507130816 | 50 | 250 | 0.0 | 0.9 | 0.00 | 0.00 | 0.00 | 87 | 1014.9 |
| 20260507130313 | 50 | 290 | 0.0 | 0.0 | 0.00 | 0.00 | 0.00 | 87 | 1014.8 |
| 20260507125812 | 50 | 325 | 0.9 | 0.9 | 0.00 | 0.00 | 0.00 | 86 | 1015.0 |
| 20260507125309 | 50 | 46 | 0.9 | 0.9 | 0.00 | 0.00 | 0.00 | 87 | 1014.9 |
| 20260507124806 | 50 | 276 | 0.9 | 1.7 | 0.00 | 0.00 | 0.00 | 88 | 1015.1 |
| 20260507124303 | 50 | 273 | 0.0 | 0.0 | 0.00 | 0.00 | 0.00 | 89 | 1014.8 |
| 20260507123801 | 50 | 296 | 0.9 | 0.9 | 0.00 | 0.00 | 0.00 | 88 | 1014.7 |
| 20260507123258 | 51 | 257 | 0.0 | 0.0 | 0.00 | 0.00 | 0.00 | 88 | 1014.8 |
| 20260507122754 | 51 | 243 | 0.0 | 0.9 | 0.00 | 0.00 | 0.00 | 88 | 1014.6 |
| 20260507122249 | 51 | 270 | 0.0 | 0.0 | 0.00 | 0.00 | 0.00 | 88 | 1014.7 |
| 20260507121746 | 51 | 30 | 0.9 | 0.9 | 0.00 | 0.00 | 0.00 | 87 | 1014.6 |
| 20260507121241 | 51 | 267 | 0.0 | 0.0 | 0.00 | 0.00 | 0.00 | 88 | 1014.4 |
| 20260507120738 | 51 | 273 | 0.0 | 0.9 | 0.00 | 0.00 | 0.00 | 87 | 1014.5 |
| 20260507120235 | 51 | 271 | 0.0 | 0.0 | 0.00 | 0.00 | 0.00 | 88 | 1014.5 |
| 20260507115731 | 51 | 274 | 0.0 | 0.0 | 0.00 | 0.00 | 0.00 | 89 | 1014.5 |
| 20260507115227 | 51 | 272 | 0.0 | 0.0 | 0.00 | 0.00 | 0.00 | 88 | 1014.5 |
| 20260507114722 | 50 | 271 | 0.0 | 0.0 | 0.00 | 0.00 | 0.00 | 88 | 1014.5 |
| 20260507114220 | 50 | 276 | 0.0 | 0.9 | 0.00 | 0.00 | 0.00 | 87 | 1014.4 |
| 20260507113718 | 50 | 276 | 0.0 | 0.0 | 0.00 | 0.00 | 0.00 | 89 | 1013.9 |
| 20260507113214 | 50 | 279 | 0.9 | 0.9 | 0.00 | 0.00 | 0.00 | 89 | 1014.2 |
| 20260507112712 | 50 | 286 | 0.9 | 0.9 | 0.00 | 0.00 | 0.00 | 91 | 1013.9 |
| 20260507112209 | 50 | 269 | 0.0 | 0.0 | 0.00 | 0.00 | 0.00 | 91 | 1014.2 |
| 20260507111706 | 50 | 161 | 1.7 | 1.7 | 0.00 | 0.00 | 0.00 | 92 | 1013.9 |
| 20260507111203 | 50 | 275 | 0.0 | 0.0 | 0.00 | 0.00 | 0.00 | 91 | 1014.0 |
| 20260507110658 | 50 | 266 | 0.0 | 0.0 | 0.00 | 0.00 | 0.00 | 92 | 1014.2 |
| 20260507110156 | 50 | 273 | 0.0 | 0.0 | 0.00 | 0.00 | 0.00 | 91 | 1014.0 |
| 20260507105653 | 50 | 268 | 0.0 | 0.0 | 0.00 | 0.00 | 0.00 | 91 | 1013.8 |
| 20260507105148 | 50 | 253 | 0.0 | 0.9 | 0.00 | 0.00 | 0.00 | 92 | 1013.8 |
| 20260507104646 | 50 | 284 | 0.0 | 0.0 | 0.00 | 0.00 | 0.00 | 92 | 1013.8 |
| 20260507104142 | 50 | 275 | 0.9 | 0.9 | 0.00 | 0.00 | 0.00 | 91 | 1013.6 |
| 20260507103638 | 50 | 268 | 0.0 | 0.0 | 0.00 | 0.00 | 0.00 | 91 | 1013.7 |
| 20260507103135 | 50 | 271 | 0.0 | 0.0 | 0.00 | 0.00 | 0.00 | 90 | 1013.8 |
| 20260507102632 | 50 | 270 | 0.0 | 0.0 | 0.00 | 0.00 | 0.00 | 90 | 1013.7 |
| 20260507102128 | 50 | 274 | 0.0 | 0.0 | 0.00 | 0.00 | 0.00 | 90 | 1013.7 |
| 20260507101624 | 50 | 271 | 0.0 | 0.0 | 0.00 | 0.00 | 0.00 | 89 | 1013.6 |
| 20260507101120 | 50 | 273 | 0.0 | 0.0 | 0.00 | 0.00 | 0.00 | 89 | 1013.5 |
| 20260507100618 | 50 | 267 | 0.0 | 0.0 | 0.00 | 0.00 | 0.00 | 89 | 1013.5 |
| 20260507100115 | 50 | 270 | 0.0 | 0.0 | 0.00 | 0.00 | 0.00 | 89 | 1013.4 |
| 20260507095613 | 50 | 287 | 0.9 | 0.9 | 0.00 | 0.00 | 0.00 | 89 | 1013.6 |
| 20260507095109 | 50 | 274 | 0.0 | 0.0 | 0.00 | 0.00 | 0.00 | 89 | 1013.4 |
| 20260507094606 | 50 | 290 | 0.9 | 0.9 | 0.00 | 0.00 | 0.00 | 89 | 1013.4 |
| 20260507094103 | 50 | 281 | 0.0 | 0.0 | 0.00 | 0.00 | 0.00 | 89 | 1013.7 |
| 20260507093600 | 50 | 293 | 0.0 | 0.0 | 0.00 | 0.00 | 0.00 | 87 | 1013.3 |
| 20260507093059 | 50 | 259 | 0.0 | 0.0 | 0.00 | 0.00 | 0.00 | 87 | 1013.4 |
| 20260507092555 | 50 | 265 | 0.0 | 0.0 | 0.00 | 0.00 | 0.00 | 88 | 1013.3 |
| 20260507092052 | 50 | 282 | 0.9 | 0.9 | 0.00 | 0.00 | 0.00 | 87 | 1013.7 |
| 20260507091548 | 50 | 275 | 0.0 | 0.0 | 0.00 | 0.00 | 0.00 | 87 | 1013.4 |
| 20260507091045 | 50 | 281 | 0.9 | 0.9 | 0.00 | 0.00 | 0.00 | 87 | 1013.4 |
| 20260507090540 | 50 | 282 | 0.0 | 0.0 | 0.00 | 0.00 | 0.00 | 87 | 1013.6 |
| 20260507090038 | 50 | 261 | 0.0 | 0.0 | 0.00 | 0.00 | 0.00 | 87 | 1013.3 |
| 20260507085535 | 50 | 268 | 0.0 | 0.0 | 0.00 | 0.00 | 0.00 | 88 | 1013.4 |
| 20260507085031 | 51 | 273 | 0.0 | 0.0 | 0.00 | 0.00 | 0.00 | 88 | 1013.3 |
| 20260507084528 | 50 | 257 | 0.0 | 0.0 | 0.00 | 0.00 | 0.00 | 87 | 1013.1 |
| 20260507084025 | 50 | 272 | 0.0 | 0.0 | 0.00 | 0.00 | 0.00 | 88 | 1013.1 |
| 20260507083521 | 51 | 273 | 0.0 | 0.0 | 0.00 | 0.00 | 0.00 | 88 | 1013.3 |
| 20260507083018 | 51 | 310 | 0.0 | 0.0 | 0.00 | 0.00 | 0.00 | 87 | 1013.2 |
| 20260507082514 | 51 | 27 | 3.5 | 4.3 | 0.00 | 0.00 | 0.00 | 88 | 1013.3 |
| 20260507082010 | 51 | 0 | 0.9 | 1.7 | 0.00 | 0.00 | 0.00 | 89 | 1013.3 |
| 20260507081507 | 51 | 276 | 0.0 | 0.0 | 0.00 | 0.00 | 0.00 | 88 | 1013.5 |
| 20260507081004 | 51 | 329 | 0.9 | 1.7 | 0.00 | 0.00 | 0.00 | 88 | 1013.3 |
| 20260507080459 | 51 | 297 | 0.9 | 0.9 | 0.00 | 0.00 | 0.00 | 89 | 1013.5 |
| 20260507075955 | 51 | 118 | 0.9 | 1.7 | 0.00 | 0.00 | 0.00 | 89 | 1013.5 |
| 20260507075452 | 51 | 341 | 1.7 | 1.7 | 0.00 | 0.00 | 0.00 | 88 | 1013.6 |
| 20260507074948 | 51 | 298 | 0.9 | 0.9 | 0.00 | 0.00 | 0.00 | 89 | 1013.7 |
| 20260507074445 | 51 | 278 | 0.9 | 0.9 | 0.00 | 0.00 | 0.00 | 89 | 1013.6 |
| 20260507073943 | 51 | 298 | 0.0 | 0.9 | 0.00 | 0.00 | 0.00 | 89 | 1013.4 |
| 20260507073439 | 51 | 275 | 0.0 | 0.0 | 0.00 | 0.00 | 0.00 | 89 | 1013.3 |
| 20260507072936 | 51 | 337 | 0.0 | 0.9 | 0.00 | 0.00 | 0.00 | 90 | 1013.3 |
| 20260507072434 | 51 | 192 | 0.0 | 0.9 | 0.00 | 0.00 | 0.00 | 90 | 1013.3 |
| 20260507071931 | 51 | 284 | 0.9 | 0.9 | 0.00 | 0.00 | 0.00 | 91 | 1013.3 |
| 20260507071428 | 51 | 273 | 0.0 | 0.0 | 0.00 | 0.00 | 0.00 | 90 | 1013.1 |
| 20260507070924 | 51 | 271 | 0.0 | 0.0 | 0.00 | 0.00 | 0.00 | 90 | 1013.2 |
| 20260507070422 | 51 | 264 | 0.0 | 0.0 | 0.00 | 0.00 | 0.00 | 91 | 1013.0 |
| 20260507065918 | 51 | 281 | 0.0 | 0.9 | 0.00 | 0.00 | 0.00 | 90 | 1013.3 |
| 20260507065415 | 51 | 278 | 0.9 | 0.9 | 0.00 | 0.00 | 0.00 | 90 | 1013.3 |
| 20260507064912 | 52 | 282 | 0.0 | 0.9 | 0.00 | 0.00 | 0.00 | 90 | 1013.2 |
| 20260507064411 | 52 | 288 | 0.0 | 0.9 | 0.00 | 0.00 | 0.00 | 90 | 1013.2 |
| 20260507063908 | 52 | 312 | 0.9 | 1.7 | 0.00 | 0.00 | 0.00 | 90 | 1013.2 |
| 20260507063405 | 52 | 329 | 1.7 | 1.7 | 0.00 | 0.00 | 0.00 | 90 | 1013.3 |
| 20260507062902 | 52 | 12 | 0.9 | 0.9 | 0.00 | 0.00 | 0.00 | 91 | 1013.3 |
| 20260507062359 | 52 | 302 | 1.7 | 2.6 | 0.00 | 0.00 | 0.00 | 91 | 1013.3 |
| 20260507061856 | 52 | 293 | 0.9 | 0.9 | 0.00 | 0.00 | 0.00 | 91 | 1013.3 |
| 20260507061354 | 52 | 333 | 0.9 | 1.7 | 0.00 | 0.00 | 0.00 | 91 | 1013.3 |
| 20260507060853 | 52 | 302 | 0.0 | 0.9 | 0.00 | 0.00 | 0.00 | 91 | 1013.4 |
| 20260507060349 | 53 | 14 | 3.5 | 5.2 | 0.00 | 0.00 | 0.00 | 91 | 1013.2 |
| 20260507055846 | 53 | 269 | 0.0 | 0.0 | 0.00 | 0.00 | 0.00 | 92 | 1013.5 |
| 20260507055340 | 53 | 263 | 0.9 | 0.9 | 0.00 | 0.00 | 0.00 | 91 | 1013.5 |
| 20260507054838 | 53 | 277 | 1.7 | 1.7 | 0.00 | 0.00 | 0.00 | 91 | 1013.5 |
| 20260507054334 | 54 | 287 | 1.7 | 1.7 | 0.00 | 0.00 | 0.00 | 90 | 1013.8 |
| 20260507053831 | 54 | 335 | 1.7 | 2.6 | 0.00 | 0.00 | 0.00 | 90 | 1013.4 |
| 20260507053329 | 54 | 252 | 0.9 | 2.6 | 0.00 | 0.00 | 0.00 | 90 | 1013.4 |
| 20260507052827 | 55 | 33 | 0.9 | 1.7 | 0.00 | 0.00 | 0.00 | 90 | 1013.6 |
| 20260507052324 | 55 | 348 | 1.7 | 2.6 | 0.00 | 0.00 | 0.00 | 91 | 1013.5 |
| 20260507051822 | 55 | 299 | 0.0 | 0.9 | 0.00 | 0.00 | 0.00 | 90 | 1013.4 |
| 20260507051319 | 55 | 307 | 1.7 | 1.7 | 0.00 | 0.00 | 0.00 | 90 | 1013.3 |
| 20260507050815 | 55 | 257 | 0.0 | 0.0 | 0.00 | 0.00 | 0.00 | 91 | 1013.1 |
| 20260507050312 | 55 | 267 | 0.0 | 0.0 | 0.00 | 0.00 | 0.00 | 90 | 1013.0 |
| 20260507045809 | 55 | 336 | 1.7 | 2.6 | 0.00 | 0.00 | 0.00 | 89 | 1013.2 |
| 20260507045306 | 55 | 310 | 1.7 | 1.7 | 0.00 | 0.00 | 0.00 | 89 | 1013.1 |
| 20260507044802 | 55 | 245 | 0.0 | 0.9 | 0.00 | 0.00 | 0.00 | 90 | 1013.0 |
| 20260507044259 | 56 | 331 | 0.9 | 0.9 | 0.00 | 0.00 | 0.00 | 90 | 1013.0 |
| 20260507043755 | 56 | 347 | 2.6 | 2.6 | 0.00 | 0.00 | 0.00 | 89 | 1012.9 |
| 20260507043252 | 56 | 281 | 0.9 | 0.9 | 0.00 | 0.00 | 0.00 | 89 | 1012.9 |
| 20260507042748 | 56 | 264 | 0.0 | 0.9 | 0.00 | 0.00 | 0.00 | 90 | 1012.9 |
| 20260507042243 | 56 | 254 | 0.0 | 0.0 | 0.00 | 0.00 | 0.00 | 90 | 1012.7 |
| 20260507041742 | 57 | 276 | 0.9 | 0.9 | 0.00 | 0.00 | 0.00 | 90 | 1012.8 |
| 20260507041238 | 57 | 304 | 1.7 | 1.7 | 0.00 | 0.00 | 0.00 | 90 | 1012.5 |
| 20260507040735 | 57 | 334 | 2.6 | 4.3 | 0.00 | 0.00 | 0.00 | 89 | 1012.4 |
| 20260507040230 | 57 | 283 | 0.0 | 0.9 | 0.00 | 0.00 | 0.00 | 90 | 1012.5 |
| 20260507035726 | 57 | 320 | 1.7 | 2.6 | 0.00 | 0.09 | 0.09 | 90 | 1012.2 |
| 20260507035222 | 57 | 267 | 0.0 | 0.0 | 0.00 | 0.09 | 0.09 | 92 | 1012.7 |
| 20260507034720 | 57 | 270 | 0.9 | 0.9 | 0.00 | 0.09 | 0.09 | 90 | 1012.1 |
| 20260507034217 | 57 | 249 | 0.0 | 0.9 | 0.00 | 0.09 | 0.09 | 90 | 1012.1 |
| 20260507033715 | 58 | 227 | 0.0 | 0.9 | 0.00 | 0.09 | 0.09 | 89 | 1012.2 |
| 20260507033212 | 58 | 271 | 0.0 | 0.0 | 0.00 | 0.09 | 0.09 | 89 | 1013.2 |
| 20260507032710 | 58 | 298 | 0.9 | 0.9 | 0.00 | 0.09 | 0.09 | 89 | 1013.0 |
| 20260507032205 | 58 | 304 | 1.7 | 1.7 | 0.00 | 0.09 | 0.09 | 89 | 1013.2 |
| 20260507031703 | 58 | 277 | 0.0 | 0.9 | 0.00 | 0.09 | 0.09 | 88 | 1013.0 |
| 20260507031159 | 58 | 12 | 2.6 | 2.6 | 0.00 | 0.09 | 0.09 | 88 | 1013.0 |
| 20260507030655 | 58 | 8 | 4.3 | 5.2 | 0.00 | 0.09 | 0.09 | 89 | 1012.9 |
| 20260507030154 | 58 | 272 | 0.0 | 0.0 | 0.00 | 0.09 | 0.09 | 94 | 1013.3 |
| 20260507025651 | 58 | 276 | 0.9 | 0.9 | 0.00 | 0.09 | 0.09 | 93 | 1013.0 |
| 20260507025147 | 58 | 274 | 0.0 | 0.0 | 0.00 | 0.09 | 0.09 | 92 | 1012.9 |
| 20260507024646 | 59 | 300 | 1.7 | 1.7 | 0.00 | 0.09 | 0.09 | 92 | 1012.1 |
| 20260507024142 | 58 | 262 | 0.0 | 0.9 | 0.00 | 0.09 | 0.09 | 91 | 1012.1 |
| 20260507023638 | 59 | 208 | 0.9 | 0.9 | 0.00 | 0.09 | 0.09 | 94 | 1012.2 |